Norfolk, VA (23502)

8:06 AM EDT on September 21, 2014 (GMT -0400)
Moores Bridges WTP | Change Station
CLOSE
Current Station
Personal Weather Station
Location: Norfolk, VA
Elevation: 9 ft
Nearby Weather Stations

Elev 9 ft 36.87 °N, 76.20 °W | Updated 9 minutes ago

Rain
Rain
72.1 °F
Feels Like 71 °F
N
3.0
Wind Variable Wind from ENE
Gusts 6.0 mph

Today
High -- | Low -- °F
--% Chance of Precip.
Yesterday
High -- | Low -- °F
Precip. -- in
6:51 AM 7:03 PM
Waning Crescent, 7% visible
Pressure 29.82 in
Visibility 9.0 miles
Clouds Mostly Cloudy 800 ft
Overcast 1300 ft
Heat Index 71 °F
Dew Point 67 °F
Humidity 84%
Rainfall 0.11 in
Snow Depth Not available.
UV 0 out of 12
Pollen 4.30 out of 12
Ozone Good
PM2.5 Good
Flu Activity Not available.
METAR KORF 211151Z AUTO 02010KT 9SM -RA BKN008 OVC013 22/21 A2982 RMK AO2 RAB07 SLP096 P0001 60047 70047 T02220206 10228 20217 58005 TSNO

More Conditions Fewer Conditions

Pressure 29.82 in
Visibility 9.0 miles
Clouds Mostly Cloudy 800 ft
Overcast 1300 ft
Heat Index 71 °F
Dew Point 67 °F
Humidity 84%
Rainfall 0.11 in
Snow Depth Not available.
UV 0 out of 12
Pollen 4.30 out of 12
Ozone Good
PM2.5 Good
Flu Activity Not available.
METAR KORF 211151Z AUTO 02010KT 9SM -RA BKN008 OVC013 22/21 A2982 RMK AO2 RAB07 SLP096 P0001 60047 70047 T02220206 10228 20217 58005 TSNO

More Conditions Fewer Conditions

10-Day Weather Forecast

Almanac

Astronomy

Sep. 21, 2014 Rise Set
Actual Time 6:51 AM EDT 7:03 PM EDT
Civil Twilight 6:26 AM EDT 7:29 PM EDT
Nautical Twilight 5:55 AM EDT 7:59 PM EDT
Astronomical Twilight 5:24 AM EDT 8:30 PM EDT
Moon 4:26 AM EDT 5:36 PM EDT
Length of Visible Light 13h 03m
Length of Day
12h 11m
Tomorrow will be 2m 20s shorter.
Waning Crescent, 7% of the Moon is Illuminated
Today
Waning Crescent
Sep 24
New
Oct 1
First Quarter
Oct 8
Full
Oct 15
Last Quarter

Today's Extremes

State Highs State Lows

Community

WunderPhotos

Upload Photos

1,755,126 photos uploaded!

Nearby

Air Quality

  Air Quality AQ Index Pollutant
Yesterday Good
OZONE
Yesterday Good
PM2.5
Current Good
OZONE
Current Good
PM2.5
Sunday Good
PM2.5
Monday Good
PM2.5

Snow Depth

Station Depth Elevation
No new snow has been reported.

Earthquake Activity

City Distance Mag. Time & Date
No recent earthquake activity has been reported nearby.
Minimum magnitude displayed is 2.5.

Coastal Water Temperatures

Place Temperature
Chesapeake Bay Bridge Tunnel, VA 75.0 °F
Kiptopeke, VA 78.1 °F
Money Point, VA 78.1 °F
Sewells Point, VA 75.0 °F

Nearby Weather Stations